Time;durP1;ratioP1;P1;durP2;ratioP2;P2;SDS_P1;SDS_P2;PMS_P1;PMS_P2;Temp;Humidity;BMP_temperature;BMP_pressure;BME280_temperature;BME280_humidity;BME280_pressure;Samples;Min_cycle;Max_cycle;Signal;HPM_P1;HPM_P2
2021/11/22 00:02:11;;;;;;;17.42;10.85;;;4.80;30.00;;;;;;5082293;28;20048;-68
2021/11/22 00:04:42;;;;;;;22.70;11.88;;;4.90;29.70;;;;;;5076993;28;20040;-68
2021/11/22 00:07:15;;;;;;;20.08;12.90;;;4.80;29.80;;;;;;5083481;28;20047;-68
2021/11/22 00:09:44;;;;;;;18.58;11.20;;;4.80;30.00;;;;;;5080681;28;20085;-69
2021/11/22 00:12:17;;;;;;;18.80;12.40;;;4.70;30.60;;;;;;5080376;28;20536;-69
2021/11/22 00:14:45;;;;;;;19.67;11.63;;;4.80;31.20;;;;;;5050068;28;20048;-68
2021/11/22 00:17:14;;;;;;;18.02;11.07;;;4.80;31.30;;;;;;5083992;28;20040;-68
2021/11/22 00:19:46;;;;;;;19.77;11.52;;;4.80;31.10;;;;;;5085486;28;20043;-68
2021/11/22 00:22:14;;;;;;;18.00;10.75;;;4.80;31.70;;;;;;5081379;28;20043;-69
2021/11/22 00:24:42;;;;;;;17.92;11.45;;;4.80;30.80;;;;;;5079501;28;20499;-69
2021/11/22 00:27:10;;;;;;;18.85;12.02;;;4.80;31.70;;;;;;5082709;28;20046;-69
2021/11/22 00:29:41;;;;;;;17.27;10.80;;;4.80;32.20;;;;;;5081393;28;20410;-69
2021/11/22 00:32:09;;;;;;;20.45;11.65;;;4.80;31.90;;;;;;5085781;28;20040;-68
2021/11/22 00:34:43;;;;;;;17.88;11.32;;;4.70;31.10;;;;;;5079043;28;20051;-69
2021/11/22 00:37:15;;;;;;;20.17;11.38;;;4.80;32.60;;;;;;5082608;28;20070;-69
2021/11/22 00:39:45;;;;;;;18.42;12.35;;;4.80;33.10;;;;;;5084837;28;20052;-68
2021/11/22 00:42:16;;;;;;;19.92;12.00;;;4.80;32.70;;;;;;5081788;28;20033;-68
2021/11/22 00:44:48;;;;;;;22.58;11.68;;;4.80;32.70;;;;;;5075992;28;20049;-68
2021/11/22 00:47:19;;;;;;;24.05;12.65;;;4.80;32.30;;;;;;5083722;28;20109;-68
2021/11/22 00:49:49;;;;;;;19.20;12.13;;;4.80;32.40;;;;;;5083345;28;20044;-69
2021/11/22 00:52:23;;;;;;;19.83;11.50;;;4.90;34.30;;;;;;5083768;28;20094;-69
2021/11/22 00:54:51;;;;;;;19.75;12.52;;;4.80;32.70;;;;;;5085642;28;20079;-68
2021/11/22 00:57:23;;;;;;;20.85;12.25;;;4.80;33.70;;;;;;5083416;28;20036;-68
2021/11/22 00:59:52;;;;;;;20.35;13.30;;;4.80;33.70;;;;;;5085371;28;20149;-68
2021/11/22 01:02:23;;;;;;;21.00;12.65;;;4.80;35.00;;;;;;5087504;28;20079;-68
2021/11/22 01:04:52;;;;;;;24.75;13.70;;;4.80;35.60;;;;;;5082578;28;20412;-68
2021/11/22 01:07:23;;;;;;;24.65;13.52;;;4.80;35.40;;;;;;5089648;28;20073;-68
2021/11/22 01:09:51;;;;;;;25.35;14.07;;;4.80;35.50;;;;;;5088804;28;20075;-67
2021/11/22 01:12:21;;;;;;;26.30;14.35;;;4.80;35.90;;;;;;5083387;28;20114;-69
2021/11/22 01:14:49;;;;;;;30.60;15.15;;;4.90;35.80;;;;;;5083272;28;20135;-68
2021/11/22 01:17:20;;;;;;;26.73;14.75;;;4.90;35.60;;;;;;5085704;28;20052;-67
2021/11/22 01:19:51;;;;;;;24.88;14.32;;;4.90;35.80;;;;;;5086398;28;20563;-67
2021/11/22 01:22:22;;;;;;;23.85;14.43;;;4.90;35.70;;;;;;5087998;28;20598;-68
2021/11/22 01:24:54;;;;;;;22.67;13.18;;;4.90;36.20;;;;;;5084705;28;20119;-68
2021/11/22 01:27:48;;;;;;;23.63;13.63;;;4.90;36.60;;;;;;5084486;28;20045;-67
2021/11/22 01:30:20;;;;;;;21.92;14.05;;;4.80;36.90;;;;;;5079763;28;20111;-70
2021/11/22 01:32:49;;;;;;;27.33;15.07;;;4.90;36.60;;;;;;5081818;28;20478;-69
2021/11/22 01:35:21;;;;;;;26.02;14.98;;;4.80;37.40;;;;;;5084943;28;20131;-68
2021/11/22 01:37:51;;;;;;;23.25;14.20;;;4.80;37.60;;;;;;5075419;28;20226;-68
2021/11/22 01:40:22;;;;;;;26.38;14.85;;;4.80;38.50;;;;;;5086513;28;20048;-68
2021/11/22 01:42:51;;;;;;;24.42;13.98;;;4.80;38.70;;;;;;5082340;28;20054;-68
2021/11/22 01:45:21;;;;;;;22.67;14.25;;;4.80;38.60;;;;;;5086039;28;20055;-68
2021/11/22 01:47:49;;;;;;;25.33;15.75;;;4.80;39.50;;;;;;5085725;28;20044;-68
2021/11/22 01:50:23;;;;;;;27.40;14.40;;;4.80;39.90;;;;;;5087877;28;20110;-68
2021/11/22 01:52:54;;;;;;;21.85;13.10;;;4.70;40.40;;;;;;5084072;28;20335;-68
2021/11/22 01:55:25;;;;;;;26.00;14.25;;;4.80;41.10;;;;;;5081069;28;20541;-68
2021/11/22 01:58:00;;;;;;;30.42;14.82;;;4.70;42.00;;;;;;5086675;28;20074;-68
2021/11/22 02:00:34;;;;;;;25.92;15.18;;;4.70;42.00;;;;;;5070371;28;20111;-69
2021/11/22 02:03:07;;;;;;;26.98;14.75;;;4.70;43.60;;;;;;5063578;28;20048;-68
2021/11/22 02:05:51;;;;;;;27.90;15.25;;;4.70;44.30;;;;;;5084030;28;20044;-70
2021/11/22 02:08:26;;;;;;;26.08;15.00;;;4.70;44.80;;;;;;5080564;28;20126;-69
2021/11/22 02:10:57;;;;;;;30.95;17.20;;;4.70;44.00;;;;;;5084854;28;20044;-68
2021/11/22 02:13:25;;;;;;;34.50;17.15;;;4.70;45.10;;;;;;5080974;28;20040;-69
2021/11/22 02:15:57;;;;;;;30.52;15.82;;;4.70;45.10;;;;;;5085026;28;20052;-67
2021/11/22 02:18:30;;;;;;;31.92;16.63;;;4.70;45.80;;;;;;5083584;28;20041;-68
2021/11/22 02:21:01;;;;;;;28.95;17.35;;;4.70;46.00;;;;;;5084618;28;20044;-68
2021/11/22 02:23:29;;;;;;;28.92;17.17;;;4.60;45.60;;;;;;5080335;28;20062;-68
2021/11/22 02:25:58;;;;;;;30.23;16.58;;;4.60;46.20;;;;;;5073527;28;20055;-68
2021/11/22 02:28:26;;;;;;;29.05;16.80;;;4.60;46.80;;;;;;5081599;28;20312;-68
2021/11/22 02:30:55;;;;;;;29.80;16.50;;;4.60;47.20;;;;;;5083883;28;20045;-68
2021/11/22 02:33:27;;;;;;;33.08;18.10;;;4.60;47.10;;;;;;5079551;28;20040;-68
2021/11/22 02:36:00;;;;;;;31.63;16.58;;;4.60;47.60;;;;;;5082917;28;20056;-68
2021/11/22 02:38:35;;;;;;;31.98;18.05;;;4.60;48.20;;;;;;5083742;28;20109;-68
2021/11/22 02:41:05;;;;;;;36.58;19.20;;;4.60;49.00;;;;;;5081679;28;20145;-68
2021/11/22 02:43:35;;;;;;;35.03;18.55;;;4.60;49.00;;;;;;5080804;28;20062;-69
2021/11/22 02:46:03;;;;;;;36.45;18.70;;;4.50;49.70;;;;;;5081595;28;20158;-68
2021/11/22 02:48:35;;;;;;;34.42;18.92;;;4.50;49.90;;;;;;5079753;28;20135;-68
2021/11/22 02:51:07;;;;;;;33.60;19.05;;;4.60;50.00;;;;;;5080210;28;20131;-68
2021/11/22 02:53:38;;;;;;;37.65;21.17;;;4.60;50.00;;;;;;5076386;28;20051;-69
2021/11/22 02:56:08;;;;;;;39.88;19.98;;;4.60;50.10;;;;;;5078010;28;20119;-69
2021/11/22 02:58:38;;;;;;;39.05;20.40;;;4.50;49.90;;;;;;5085411;28;20066;-69
2021/11/22 03:01:08;;;;;;;43.50;21.63;;;4.50;50.70;;;;;;5081975;28;20067;-69
2021/11/22 03:03:37;;;;;;;43.20;22.67;;;4.60;51.00;;;;;;5079259;28;20109;-69
2021/11/22 03:06:09;;;;;;;47.35;20.63;;;4.50;49.90;;;;;;5082617;28;20595;-68
2021/11/22 03:08:40;;;;;;;47.08;21.52;;;4.60;51.00;;;;;;5082461;28;20063;-69
2021/11/22 03:11:12;;;;;;;;;;;4.60;51.20;;;;;;5086000;28;21773;-68
2021/11/22 03:13:44;;;;;;;46.95;22.00;;;4.60;51.30;;;;;;5077687;28;20348;-69
2021/11/22 03:16:13;;;;;;;50.67;24.20;;;4.70;51.20;;;;;;5083317;28;20462;-68
2021/11/22 03:18:42;;;;;;;42.30;21.90;;;4.60;50.40;;;;;;5085514;28;20044;-68
2021/11/22 03:21:12;;;;;;;43.10;20.40;;;4.60;50.70;;;;;;5082611;28;20072;-68
2021/11/22 03:23:44;;;;;;;47.47;23.50;;;4.60;51.10;;;;;;5077029;28;20042;-67
2021/11/22 03:26:12;;;;;;;49.40;21.15;;;4.50;51.10;;;;;;5082687;28;20052;-68
2021/11/22 03:28:42;;;;;;;49.30;22.38;;;4.60;51.80;;;;;;5082841;28;20044;-68
2021/11/22 03:31:10;;;;;;;48.65;22.75;;;4.60;51.40;;;;;;5087234;28;20599;-68
2021/11/22 03:33:46;;;;;;;43.60;21.60;;;4.60;51.40;;;;;;5076300;28;20075;-68
2021/11/22 03:36:15;;;;;;;50.25;23.30;;;4.60;51.50;;;;;;5082270;28;20075;-68
2021/11/22 03:38:45;;;;;;;48.78;22.33;;;4.60;51.60;;;;;;5081639;28;20032;-69
2021/11/22 03:41:15;;;;;;;49.25;22.08;;;4.60;51.90;;;;;;5084987;28;20047;-68
2021/11/22 03:43:57;;;;;;;52.22;22.98;;;4.60;51.90;;;;;;5077808;28;20499;-70
2021/11/22 03:46:28;;;;;;;50.58;23.23;;;4.60;52.10;;;;;;5058362;28;20113;-70
2021/11/22 03:48:57;;;;;;;54.83;23.60;;;4.50;52.40;;;;;;5083530;28;20047;-69
2021/11/22 03:51:25;;;;;;;50.88;23.60;;;4.60;51.90;;;;;;5084937;28;20072;-68
2021/11/22 03:53:54;;;;;;;49.28;22.90;;;4.50;52.30;;;;;;5054068;28;20109;-68
2021/11/22 03:56:23;;;;;;;46.47;21.95;;;4.50;52.70;;;;;;5083689;28;20067;-69
2021/11/22 03:58:51;;;;;;;42.80;20.48;;;4.50;52.50;;;;;;5085919;28;20062;-69
2021/11/22 04:01:21;;;;;;;47.42;20.65;;;4.50;52.70;;;;;;5084215;28;20413;-68
2021/11/22 04:03:50;;;;;;;45.75;19.50;;;4.50;52.40;;;;;;5078731;28;21176;-68
2021/11/22 04:06:19;;;;;;;39.83;20.13;;;4.50;52.60;;;;;;5085204;28;20044;-69
2021/11/22 04:08:47;;;;;;;35.65;17.77;;;4.50;52.90;;;;;;5080194;28;20131;-68
2021/11/22 04:11:16;;;;;;;38.10;19.33;;;4.40;53.30;;;;;;5086173;28;20036;-68
2021/11/22 04:13:44;;;;;;;43.55;18.42;;;4.50;53.00;;;;;;5073155;28;20495;-68
2021/11/22 04:16:13;;;;;;;37.65;17.73;;;4.40;53.40;;;;;;5080187;28;20834;-68
2021/11/22 04:18:46;;;;;;;39.10;16.48;;;4.50;53.10;;;;;;5082925;28;20127;-68
2021/11/22 04:21:20;;;;;;;40.08;18.67;;;4.50;53.00;;;;;;5082411;28;20082;-68
2021/11/22 04:23:51;;;;;;;40.15;17.95;;;4.50;53.50;;;;;;5075813;28;20660;-68
2021/11/22 04:26:21;;;;;;;38.47;17.90;;;4.50;53.80;;;;;;5084466;28;20052;-69
2021/11/22 04:28:50;;;;;;;39.25;18.27;;;4.50;53.60;;;;;;5081451;28;20040;-68
2021/11/22 04:31:21;;;;;;;40.22;19.08;;;4.50;53.80;;;;;;5081004;28;20497;-69
2021/11/22 04:33:52;;;;;;;37.80;17.75;;;4.50;53.90;;;;;;5077103;28;20043;-69
2021/11/22 04:36:24;;;;;;;37.80;17.67;;;4.50;53.90;;;;;;5082220;28;20044;-68
2021/11/22 04:38:56;;;;;;;34.63;16.75;;;4.50;53.90;;;;;;5079502;28;20419;-68
2021/11/22 04:41:27;;;;;;;33.72;16.75;;;4.50;53.80;;;;;;5085797;28;20128;-69
2021/11/22 04:43:55;;;;;;;32.60;16.00;;;4.50;54.00;;;;;;5075774;28;20209;-69
2021/11/22 04:46:23;;;;;;;33.88;16.23;;;4.50;53.90;;;;;;5083434;28;20415;-69
2021/11/22 04:48:54;;;;;;;34.63;16.77;;;4.60;53.90;;;;;;5084831;28;20131;-69
2021/11/22 04:51:25;;;;;;;34.65;16.27;;;4.60;53.90;;;;;;5082130;28;20033;-69
2021/11/22 04:53:55;;;;;;;33.80;16.50;;;4.60;54.10;;;;;;5078785;28;20052;-68
2021/11/22 04:56:23;;;;;;;31.17;15.40;;;4.60;54.00;;;;;;5081012;28;20590;-68
2021/11/22 04:58:53;;;;;;;32.90;16.27;;;4.60;54.20;;;;;;5081028;28;20060;-69
2021/11/22 05:01:21;;;;;;;32.08;15.75;;;4.60;54.20;;;;;;5084921;28;20036;-67
2021/11/22 05:03:50;;;;;;;28.40;14.88;;;4.60;54.00;;;;;;5077384;28;20112;-69
2021/11/22 05:06:20;;;;;;;32.97;15.98;;;4.60;54.00;;;;;;5080280;28;20402;-69
2021/11/22 05:08:52;;;;;;;27.13;13.48;;;4.60;54.00;;;;;;5084266;28;20051;-69
2021/11/22 05:11:20;;;;;;;26.23;13.85;;;4.50;54.10;;;;;;5081869;28;20127;-69
2021/11/22 05:13:48;;;;;;;29.65;14.45;;;4.50;54.30;;;;;;5078758;28;20079;-68
2021/11/22 05:16:17;;;;;;;28.02;14.60;;;4.60;54.60;;;;;;5083459;28;20552;-68
2021/11/22 05:18:47;;;;;;;31.67;14.85;;;4.60;54.30;;;;;;5078465;28;20098;-68
2021/11/22 05:21:15;;;;;;;30.70;15.30;;;4.60;55.00;;;;;;5082733;28;20040;-69
2021/11/22 05:23:48;;;;;;;32.47;15.50;;;4.70;54.70;;;;;;5078498;28;20063;-69
2021/11/22 05:26:17;;;;;;;32.70;14.95;;;4.70;55.00;;;;;;5083108;28;20484;-69
2021/11/22 05:28:45;;;;;;;33.53;16.85;;;4.70;54.70;;;;;;5084484;28;20052;-69
2021/11/22 05:31:13;;;;;;;29.23;14.73;;;4.60;55.30;;;;;;5080918;28;20503;-70
2021/11/22 05:33:44;;;;;;;34.97;17.10;;;4.70;55.00;;;;;;5079477;28;20624;-71
2021/11/22 05:36:12;;;;;;;32.03;14.68;;;4.60;54.90;;;;;;5082927;28;20687;-68
2021/11/22 05:38:40;;;;;;;31.70;15.80;;;4.60;55.20;;;;;;5082606;28;20131;-70
2021/11/22 05:41:08;;;;;;;30.55;15.90;;;4.70;55.40;;;;;;5087445;28;20071;-70
2021/11/22 05:43:36;;;;;;;35.25;18.30;;;4.60;55.10;;;;;;5082405;28;20062;-70
2021/11/22 05:46:07;;;;;;;32.78;16.77;;;4.70;55.70;;;;;;5081635;28;20046;-71
2021/11/22 05:48:35;;;;;;;29.05;14.00;;;4.60;55.50;;;;;;5086248;28;20041;-71
2021/11/22 05:51:07;;;;;;;25.90;12.75;;;4.70;55.60;;;;;;5083656;28;20529;-69
2021/11/22 05:53:42;;;;;;;28.65;13.32;;;4.70;55.70;;;;;;5079545;28;20032;-70
2021/11/22 05:56:11;;;;;;;28.52;12.90;;;4.60;56.00;;;;;;5086657;28;20083;-71
2021/11/22 05:58:40;;;;;;;28.83;13.88;;;4.70;56.40;;;;;;5084236;28;20123;-71
2021/11/22 06:01:08;;;;;;;20.92;10.95;;;4.70;56.50;;;;;;5084574;28;20050;-71
2021/11/22 06:03:37;;;;;;;26.35;12.05;;;4.60;55.90;;;;;;5083821;28;20071;-71
2021/11/22 06:06:10;;;;;;;27.38;13.18;;;4.70;56.30;;;;;;5079123;28;20044;-72
2021/11/22 06:08:41;;;;;;;25.48;12.75;;;4.70;56.20;;;;;;5085440;28;20109;-72
2021/11/22 06:11:14;;;;;;;23.92;11.82;;;4.80;56.60;;;;;;5080937;28;20105;-72
2021/11/22 06:13:42;;;;;;;23.75;11.13;;;4.70;56.90;;;;;;5079226;28;20818;-72
2021/11/22 06:16:10;;;;;;;22.15;11.27;;;4.70;56.50;;;;;;5079990;28;20079;-72
2021/11/22 06:18:43;;;;;;;22.35;11.77;;;4.70;56.40;;;;;;5087303;28;20051;-71
2021/11/22 06:21:15;;;;;;;24.08;11.82;;;4.70;56.50;;;;;;5081228;28;20044;-70
2021/11/22 06:23:46;;;;;;;21.92;11.90;;;4.70;56.60;;;;;;5082521;28;20055;-71
2021/11/22 06:26:18;;;;;;;23.85;12.50;;;4.70;56.70;;;;;;5083909;28;20052;-71
2021/11/22 06:28:47;;;;;;;24.67;12.38;;;4.80;58.00;;;;;;5084317;28;20044;-72
2021/11/22 06:31:15;;;;;;;23.08;12.10;;;4.80;57.10;;;;;;5086923;28;20075;-72
2021/11/22 06:33:43;;;;;;;23.52;11.55;;;4.70;57.10;;;;;;5074688;28;20044;-70
2021/11/22 06:36:11;;;;;;;24.33;12.02;;;4.80;57.90;;;;;;5078527;28;20155;-72
2021/11/22 06:38:44;;;;;;;22.80;12.50;;;4.80;57.40;;;;;;5086649;28;20040;-71
2021/11/22 06:41:16;;;;;;;23.27;11.77;;;4.80;57.80;;;;;;5083780;28;20152;-71
2021/11/22 06:43:44;;;;;;;21.40;11.52;;;4.80;57.80;;;;;;5079219;28;20139;-71
2021/11/22 06:46:12;;;;;;;23.98;11.88;;;4.70;57.30;;;;;;5084466;28;20044;-71
2021/11/22 06:48:40;;;;;;;22.83;11.60;;;4.70;57.90;;;;;;5084201;28;20515;-70
2021/11/22 06:51:13;;;;;;;19.85;11.35;;;4.80;58.10;;;;;;5084481;28;20044;-70
2021/11/22 06:53:47;;;;;;;23.40;12.48;;;4.70;58.00;;;;;;5079495;28;20112;-70
2021/11/22 06:56:15;;;;;;;22.75;12.23;;;4.80;58.10;;;;;;5085489;28;20094;-71
2021/11/22 06:58:44;;;;;;;24.67;13.15;;;4.80;58.00;;;;;;5080809;28;20134;-71
2021/11/22 07:01:15;;;;;;;24.13;12.93;;;4.80;58.10;;;;;;5086580;28;20527;-70
2021/11/22 07:03:46;;;;;;;25.38;13.30;;;4.90;58.20;;;;;;5082368;28;20605;-70
2021/11/22 07:06:14;;;;;;;22.63;12.60;;;4.90;58.20;;;;;;5080244;28;20036;-70
2021/11/22 07:08:42;;;;;;;25.83;13.95;;;4.90;58.20;;;;;;5083057;28;20040;-71
2021/11/22 07:11:14;;;;;;;24.15;12.20;;;4.90;58.30;;;;;;5084277;28;20071;-70
2021/11/22 07:13:43;;;;;;;28.65;14.00;;;4.90;58.10;;;;;;5079445;28;20067;-70
2021/11/22 07:16:12;;;;;;;27.63;13.43;;;4.90;58.10;;;;;;5085267;28;20081;-70
2021/11/22 07:18:41;;;;;;;27.95;13.80;;;4.90;58.20;;;;;;5083918;28;20052;-70
2021/11/22 07:21:09;;;;;;;26.65;13.80;;;4.90;58.10;;;;;;5084668;28;20496;-70
2021/11/22 07:23:40;;;;;;;29.17;14.73;;;4.90;58.30;;;;;;5081181;28;20033;-69
2021/11/22 07:26:11;;;;;;;29.73;14.45;;;4.90;58.60;;;;;;5078131;28;20177;-69
2021/11/22 07:28:46;;;;;;;25.23;14.13;;;5.00;58.70;;;;;;5084019;28;20143;-69
2021/11/22 07:31:15;;;;;;;25.58;13.88;;;5.00;58.50;;;;;;5086278;28;20133;-70
2021/11/22 07:33:43;;;;;;;31.65;15.05;;;5.00;58.50;;;;;;5079946;28;20079;-70
2021/11/22 07:36:11;;;;;;;31.20;15.52;;;5.00;58.30;;;;;;5081216;28;20045;-70
2021/11/22 07:38:41;;;;;;;24.88;13.80;;;5.10;59.00;;;;;;5083461;28;20499;-70
2021/11/22 07:41:09;;;;;;;25.42;12.80;;;5.10;58.90;;;;;;5082327;28;20040;-69
2021/11/22 07:43:38;;;;;;;32.83;14.88;;;5.10;59.30;;;;;;5081933;28;20135;-70
2021/11/22 07:46:08;;;;;;;29.92;14.35;;;5.10;59.10;;;;;;5081827;28;20507;-70
2021/11/22 07:48:37;;;;;;;30.25;12.27;;;5.10;59.00;;;;;;5081419;28;20072;-69
2021/11/22 07:51:08;;;;;;;29.67;15.60;;;5.10;59.00;;;;;;5075457;28;20093;-69
2021/11/22 07:53:37;;;;;;;23.60;11.98;;;5.10;58.70;;;;;;5077613;28;20041;-70
2021/11/22 07:56:07;;;;;;;27.42;13.15;;;5.10;58.50;;;;;;5083299;28;20470;-70
2021/11/22 07:58:35;;;;;;;28.15;12.50;;;5.10;59.00;;;;;;5081342;28;20047;-69
2021/11/22 08:01:08;;;;;;;28.13;13.70;;;5.10;59.10;;;;;;5080517;28;20468;-69
2021/11/22 08:03:40;;;;;;;28.92;14.45;;;5.20;59.30;;;;;;5082150;28;20075;-70
2021/11/22 08:06:08;;;;;;;27.27;14.00;;;5.20;59.10;;;;;;5080196;28;20048;-70
2021/11/22 08:08:41;;;;;;;25.08;12.73;;;5.20;59.30;;;;;;5080180;28;20123;-71
2021/11/22 08:11:29;;;;;;;22.77;12.63;;;5.20;59.00;;;;;;5082523;28;20044;-70
2021/11/22 08:13:57;;;;;;;27.35;13.35;;;5.20;59.20;;;;;;5080703;28;20048;-70
2021/11/22 08:16:28;;;;;;;24.70;13.45;;;5.20;59.10;;;;;;5085124;28;20039;-70
2021/11/22 08:19:01;;;;;;;23.70;12.13;;;5.20;59.30;;;;;;5061588;28;20502;-70
2021/11/22 08:21:30;;;;;;;23.60;12.98;;;5.20;59.10;;;;;;5062565;28;20036;-70
2021/11/22 08:23:58;;;;;;;25.50;13.38;;;5.20;59.10;;;;;;5061152;28;20048;-70
2021/11/22 08:26:30;;;;;;;24.52;13.63;;;5.30;59.30;;;;;;5063106;28;20048;-70
2021/11/22 08:28:59;;;;;;;22.98;12.05;;;5.20;59.40;;;;;;5060935;28;20048;-70
2021/11/22 08:31:29;;;;;;;26.30;12.98;;;5.30;59.50;;;;;;5057208;28;20041;-71
2021/11/22 08:34:00;;;;;;;31.83;19.52;;;5.30;60.10;;;;;;5063283;28;20127;-69
2021/11/22 08:36:28;;;;;;;28.63;13.80;;;5.30;59.70;;;;;;5057732;28;20139;-70
2021/11/22 08:38:56;;;;;;;24.77;12.85;;;5.40;59.60;;;;;;5061986;28;20064;-70
2021/11/22 08:41:26;;;;;;;21.65;11.90;;;5.40;58.60;;;;;;5062034;28;20113;-70
2021/11/22 08:43:58;;;;;;;24.55;12.65;;;5.50;59.40;;;;;;5056045;28;20105;-70
2021/11/22 08:46:26;;;;;;;23.75;12.77;;;5.40;58.50;;;;;;5063583;28;20126;-69
2021/11/22 08:48:56;;;;;;;24.08;12.70;;;5.50;59.60;;;;;;5063875;28;20535;-71
2021/11/22 08:51:24;;;;;;;24.13;12.32;;;5.60;59.50;;;;;;5059507;28;20047;-70
2021/11/22 08:53:53;;;;;;;24.92;12.45;;;5.60;58.70;;;;;;5061992;28;20046;-70
2021/11/22 08:56:21;;;;;;;22.52;12.77;;;5.60;59.10;;;;;;5060433;28;20559;-71
2021/11/22 08:58:49;;;;;;;19.73;11.98;;;5.60;58.90;;;;;;5060622;28;20102;-70
2021/11/22 09:01:17;;;;;;;20.95;12.07;;;5.60;59.10;;;;;;5064755;28;20123;-71
2021/11/22 09:03:46;;;;;;;19.80;12.02;;;5.50;58.60;;;;;;5055561;28;20080;-70
2021/11/22 09:06:16;;;;;;;20.50;11.25;;;5.60;58.80;;;;;;5059005;28;20040;-71
2021/11/22 09:08:44;;;;;;;21.52;11.90;;;5.60;58.70;;;;;;5062477;28;20060;-70
2021/11/22 09:11:16;;;;;;;22.15;12.27;;;5.70;58.90;;;;;;5067475;28;20044;-70
2021/11/22 09:13:47;;;;;;;29.95;13.98;;;5.80;58.80;;;;;;5079369;28;20055;-69
2021/11/22 09:16:15;;;;;;;21.80;12.23;;;5.80;58.60;;;;;;5086347;28;20219;-70
2021/11/22 09:18:47;;;;;;;21.17;11.55;;;5.80;57.30;;;;;;5084759;28;20044;-70
2021/11/22 09:21:20;;;;;;;21.25;12.75;;;5.90;56.60;;;;;;5086092;28;21380;-70
2021/11/22 09:23:49;;;;;;;22.85;12.52;;;5.90;56.10;;;;;;5082334;28;20055;-69
2021/11/22 09:26:20;;;;;;;22.20;11.93;;;5.90;56.00;;;;;;5085652;28;20074;-73
2021/11/22 09:28:51;;;;;;;22.17;12.82;;;5.90;55.00;;;;;;5086646;28;20456;-70
2021/11/22 09:31:21;;;;;;;27.65;12.48;;;5.90;55.00;;;;;;5084155;28;20135;-70
2021/11/22 09:33:54;;;;;;;23.38;12.70;;;5.90;55.00;;;;;;5082875;28;20059;-69
2021/11/22 09:36:26;;;;;;;22.60;12.85;;;6.00;55.10;;;;;;5085506;28;20436;-69
2021/11/22 09:38:55;;;;;;;22.65;12.70;;;6.00;55.10;;;;;;5084254;28;20063;-69
2021/11/22 09:41:27;;;;;;;29.17;12.52;;;6.00;55.10;;;;;;5086249;28;20459;-70
2021/11/22 09:43:59;;;;;;;23.10;12.75;;;6.10;55.10;;;;;;5081983;28;20113;-70
2021/11/22 09:46:27;;;;;;;24.13;12.23;;;6.00;53.10;;;;;;5084957;28;20059;-70
2021/11/22 09:48:58;;;;;;;23.15;11.45;;;6.10;54.10;;;;;;5087156;28;20523;-69
2021/11/22 09:51:27;;;;;;;18.65;11.90;;;6.10;54.00;;;;;;5086713;28;20123;-69
2021/11/22 09:53:56;;;;;;;20.20;11.95;;;6.10;53.40;;;;;;5078582;28;20235;-70
2021/11/22 09:56:25;;;;;;;20.88;11.70;;;6.10;53.10;;;;;;5083114;28;20105;-69
2021/11/22 09:58:56;;;;;;;21.42;12.38;;;6.10;52.70;;;;;;5083738;28;20063;-67
2021/11/22 10:01:32;;;;;;;26.00;12.95;;;6.20;52.60;;;;;;5082977;28;20039;-69
2021/11/22 10:04:10;;;;;;;22.38;11.52;;;6.20;51.90;;;;;;5081611;28;20720;-69
2021/11/22 10:06:49;;;;;;;21.85;11.32;;;6.10;52.80;;;;;;5086472;28;20052;-69
2021/11/22 10:09:46;;;;;;;25.08;10.90;;;6.20;53.10;;;;;;5083787;28;20123;-69
2021/11/22 10:12:18;;;;;;;24.85;11.77;;;6.20;52.70;;;;;;5086308;28;20039;-70
2021/11/22 10:14:50;;;;;;;21.45;11.25;;;6.20;52.00;;;;;;5080744;28;20433;-69
2021/11/22 10:17:28;;;;;;;16.67;10.23;;;6.20;52.50;;;;;;5077927;28;20064;-69
2021/11/22 10:20:18;;;;;;;19.10;10.23;;;6.20;51.30;;;;;;5083875;28;20131;-68
2021/11/22 10:23:00;;;;;;;18.55;9.48;;;6.00;51.10;;;;;;5081830;28;20045;-69
2021/11/22 10:25:32;;;;;;;19.98;9.75;;;6.10;52.00;;;;;;5078901;28;20051;-69
2021/11/22 10:28:06;;;;;;;17.92;9.73;;;6.10;51.20;;;;;;5086542;28;20588;-69
2021/11/22 10:30:35;;;;;;;;;;;6.10;52.00;;;;;;5086504;28;20044;-69
2021/11/22 10:33:05;;;;;;;19.25;8.23;;;6.00;51.30;;;;;;5078874;28;19973;-69
2021/11/22 10:35:35;;;;;;;14.60;9.07;;;6.10;51.20;;;;;;5082230;28;20094;-70
2021/11/22 10:38:10;;;;;;;15.68;8.73;;;6.00;48.80;;;;;;5073320;28;20072;-69
2021/11/22 10:40:40;;;;;;;15.18;7.70;;;6.00;49.40;;;;;;5083491;28;20488;-69
2021/11/22 10:43:08;;;;;;;16.00;8.13;;;6.00;47.30;;;;;;5081268;28;20036;-69
2021/11/22 10:45:42;;;;;;;13.90;7.25;;;6.10;48.50;;;;;;5082079;28;20051;-69
2021/11/22 10:48:23;;;;;;;17.77;8.27;;;6.10;47.90;;;;;;5082642;28;20135;-69
2021/11/22 10:51:07;;;;;;;19.52;7.43;;;6.20;48.50;;;;;;5083620;28;20047;-69
2021/11/22 10:53:41;;;;;;;14.50;7.68;;;6.10;48.30;;;;;;5080463;28;20072;-71
2021/11/22 10:56:15;;;;;;;14.85;7.50;;;6.20;47.80;;;;;;5078013;28;20050;-69
2021/11/22 10:58:53;;;;;;;13.40;7.95;;;6.20;45.90;;;;;;5084536;28;20052;-69
2021/11/22 11:01:36;;;;;;;12.25;6.80;;;6.20;46.40;;;;;;5082206;28;20028;-70
2021/11/22 11:04:19;;;;;;;12.95;7.85;;;6.20;45.30;;;;;;5075333;28;20036;-69
2021/11/22 11:06:53;;;;;;;15.63;8.60;;;6.20;44.50;;;;;;5083053;28;20059;-69
2021/11/22 11:09:30;;;;;;;13.15;7.18;;;6.30;45.00;;;;;;5079760;28;20183;-70
2021/11/22 11:12:05;;;;;;;10.32;6.85;;;6.30;45.00;;;;;;5082710;28;20036;-69
2021/11/22 11:14:39;;;;;;;13.45;7.15;;;6.20;44.20;;;;;;5077775;28;20051;-70
2021/11/22 11:17:21;;;;;;;12.68;7.10;;;6.20;43.70;;;;;;5082238;28;20058;-69
2021/11/22 11:19:55;;;;;;;9.53;6.53;;;6.30;43.30;;;;;;5081977;28;20058;-71
2021/11/22 11:22:25;;;;;;;11.45;6.28;;;6.20;43.20;;;;;;5081528;28;20817;-69
2021/11/22 11:25:00;;;;;;;;;;;6.20;40.40;;;;;;5080106;28;20560;-68
2021/11/22 11:27:38;;;;;;;10.40;6.22;;;6.10;41.20;;;;;;5079856;28;19953;-69
2021/11/22 11:30:12;;;;;;;9.32;5.60;;;6.10;42.10;;;;;;5083835;28;20130;-68
2021/11/22 11:32:45;;;;;;;9.60;6.45;;;6.10;38.20;;;;;;5080023;28;20127;-68
2021/11/22 11:35:15;;;;;;;9.60;6.40;;;6.20;39.70;;;;;;5077251;28;20588;-69
2021/11/22 11:38:04;;;;;;;9.73;5.97;;;6.20;40.00;;;;;;5084466;28;20057;-68
2021/11/22 11:41:03;;;;;;;8.75;5.70;;;6.20;39.00;;;;;;5085930;28;20757;-69
2021/11/22 11:43:53;;;;;;;11.45;6.55;;;6.30;36.90;;;;;;5078813;28;20105;-69
2021/11/22 11:46:36;;;;;;;10.82;5.82;;;6.30;36.10;;;;;;5077756;28;20105;-68
2021/11/22 11:49:07;;;;;;;8.93;5.20;;;6.30;35.00;;;;;;5083630;28;20045;-69
2021/11/22 11:51:40;;;;;;;8.30;4.80;;;6.30;34.20;;;;;;5081133;28;20105;-69
2021/11/22 11:54:21;;;;;;;7.53;5.07;;;6.20;34.80;;;;;;5079432;28;20395;-69
2021/11/22 11:56:56;;;;;;;11.05;5.15;;;6.30;35.40;;;;;;5083996;28;20039;-69
2021/11/22 11:59:29;;;;;;;8.23;5.20;;;6.20;33.70;;;;;;5081605;28;20044;-69
2021/11/22 12:02:04;;;;;;;9.45;4.72;;;6.30;34.90;;;;;;5084703;28;20570;-68
2021/11/22 12:05:04;;;;;;;8.32;4.60;;;6.30;33.90;;;;;;5076064;28;20067;-69
2021/11/22 12:07:39;;;;;;;8.02;4.80;;;6.30;34.60;;;;;;5084367;28;20043;-68
2021/11/22 12:10:17;;;;;;;11.98;5.32;;;6.30;34.20;;;;;;5084150;28;20147;-69
2021/11/22 12:12:52;;;;;;;8.48;4.50;;;6.40;35.00;;;;;;5079245;28;20492;-67
2021/11/22 12:15:30;;;;;;;5.93;4.22;;;6.40;32.30;;;;;;5082260;28;20040;-69
2021/11/22 12:18:27;;;;;;;9.05;4.80;;;6.40;30.80;;;;;;5081708;28;20117;-67
2021/11/22 12:21:01;;;;;;;5.78;3.95;;;6.30;30.60;;;;;;5082598;28;20496;-69
2021/11/22 12:23:46;;;;;;;7.38;4.30;;;6.50;31.80;;;;;;5078710;28;20119;-70
2021/11/22 12:26:34;;;;;;;6.25;3.85;;;6.50;30.80;;;;;;5083787;28;20055;-69
2021/11/22 12:29:05;;;;;;;5.25;3.33;;;6.50;29.20;;;;;;5071495;28;20056;-69
2021/11/22 12:31:42;;;;;;;8.68;3.50;;;6.50;26.00;;;;;;5081872;28;20043;-67
2021/11/22 12:34:35;;;;;;;4.45;3.10;;;6.50;24.90;;;;;;5079355;28;20048;-69
2021/11/22 12:37:22;;;;;;;6.97;3.40;;;6.50;25.50;;;;;;5081686;28;20127;-69
2021/11/22 12:39:50;;;;;;;4.85;3.53;;;6.50;26.10;;;;;;5077323;28;20048;-69
2021/11/22 12:42:21;;;;;;;7.10;3.55;;;6.50;26.00;;;;;;5083305;28;20044;-69
2021/11/22 12:45:04;;;;;;;7.10;3.83;;;6.50;24.00;;;;;;5080367;28;20048;-68
2021/11/22 12:47:35;;;;;;;7.05;3.60;;;6.50;25.30;;;;;;5082662;28;20184;-68
2021/11/22 12:50:17;;;;;;;6.70;3.70;;;6.50;23.60;;;;;;5086148;28;20036;-69
2021/11/22 12:53:07;;;;;;;5.05;3.60;;;6.60;23.60;;;;;;5081079;28;20040;-71
2021/11/22 12:55:39;;;;;;;8.27;3.88;;;6.50;24.00;;;;;;5081422;28;20047;-68
2021/11/22 12:58:12;;;;;;;10.55;3.80;;;6.50;23.70;;;;;;5084052;28;20071;-68
2021/11/22 13:00:42;;;;;;;5.78;3.58;;;6.60;23.50;;;;;;5087497;28;20079;-67
2021/11/22 13:03:12;;;;;;;7.07;3.60;;;6.60;22.30;;;;;;5082433;28;20062;-68
2021/11/22 13:06:07;;;;;;;7.60;3.28;;;6.60;23.20;;;;;;5080044;28;20048;-68